sensor_id;sensor_type;location;lat;lon;timestamp;pressure;altitude;pressure_sealevel;temperature;humidity
72423;BME280;60413;55.658;37.498;2022-09-17T00:06:20;97237.59;;;8.86;100.00
72423;BME280;60413;55.658;37.498;2022-09-17T00:16:11;97237.16;;;8.68;100.00
72423;BME280;60413;55.658;37.498;2022-09-17T01:56:18;97265.31;;;7.67;100.00
72423;BME280;60413;55.658;37.498;2022-09-17T01:59:39;97306.72;;;7.90;100.00
72423;BME280;60413;55.658;37.498;2022-09-17T04:02:51;97366.50;;;12.69;100.00
72423;BME280;60413;55.658;37.498;2022-09-17T04:05:32;97356.63;;;12.61;100.00
72423;BME280;60413;55.658;37.498;2022-09-17T04:08:28;97358.41;;;12.66;100.00
72423;BME280;60413;55.658;37.498;2022-09-17T04:10:59;97347.94;;;13.11;100.00
72423;BME280;60413;55.658;37.498;2022-09-17T04:13:32;97403.47;;;13.61;100.00
72423;BME280;60413;55.658;37.498;2022-09-17T04:16:17;97400.97;;;13.79;100.00
72423;BME280;60413;55.658;37.498;2022-09-17T04:18:53;97376.34;;;14.01;100.00
72423;BME280;60413;55.658;37.498;2022-09-17T04:21:48;97419.88;;;15.29;100.00
72423;BME280;60413;55.658;37.498;2022-09-17T04:27:55;97404.84;;;16.11;100.00
72423;BME280;60413;55.658;37.498;2022-09-17T04:30:22;97420.66;;;16.55;100.00
72423;BME280;60413;55.658;37.498;2022-09-17T04:32:50;97349.19;;;16.54;100.00
72423;BME280;60413;55.658;37.498;2022-09-17T04:35:18;97400.25;;;17.57;100.00
72423;BME280;60413;55.658;37.498;2022-09-17T04:37:56;97385.72;;;17.88;100.00
72423;BME280;60413;55.658;37.498;2022-09-17T04:40:24;97385.75;;;18.01;100.00
72423;BME280;60413;55.658;37.498;2022-09-17T04:42:52;97382.69;;;18.36;100.00
72423;BME280;60413;55.658;37.498;2022-09-17T04:45:31;97403.63;;;19.07;100.00
72423;BME280;60413;55.658;37.498;2022-09-17T04:48:00;97407.88;;;19.09;100.00
72423;BME280;60413;55.658;37.498;2022-09-17T04:50:32;97346.38;;;18.80;100.00
72423;BME280;60413;55.658;37.498;2022-09-17T04:53:10;97406.44;;;18.99;100.00
72423;BME280;60413;55.658;37.498;2022-09-17T04:55:41;97359.03;;;18.96;100.00
72423;BME280;60413;55.658;37.498;2022-09-17T04:58:10;97384.97;;;19.48;100.00
72423;BME280;60413;55.658;37.498;2022-09-17T05:00:36;97379.06;;;19.55;100.00
72423;BME280;60413;55.658;37.498;2022-09-17T05:03:05;97368.47;;;19.87;100.00
72423;BME280;60413;55.658;37.498;2022-09-17T05:05:31;97418.97;;;19.76;100.00
72423;BME280;60413;55.658;37.498;2022-09-17T05:08:02;97391.34;;;19.72;100.00
72423;BME280;60413;55.658;37.498;2022-09-17T05:10:32;97413.81;;;19.83;100.00
72423;BME280;60413;55.658;37.498;2022-09-17T05:13:03;97429.91;;;20.43;100.00
72423;BME280;60413;55.658;37.498;2022-09-17T05:15:30;97381.44;;;20.32;100.00
72423;BME280;60413;55.658;37.498;2022-09-17T05:17:59;97393.34;;;20.03;100.00
72423;BME280;60413;55.658;37.498;2022-09-17T05:20:33;97386.63;;;19.81;100.00
72423;BME280;60413;55.658;37.498;2022-09-17T05:23:02;97404.63;;;19.96;100.00
72423;BME280;60413;55.658;37.498;2022-09-17T05:25:32;97367.44;;;19.91;100.00
72423;BME280;60413;55.658;37.498;2022-09-17T05:28:26;97397.28;;;19.53;100.00
72423;BME280;60413;55.658;37.498;2022-09-17T05:30:58;97381.66;;;19.39;100.00
72423;BME280;60413;55.658;37.498;2022-09-17T05:34:14;97377.00;;;19.92;100.00
72423;BME280;60413;55.658;37.498;2022-09-17T05:36:46;97400.19;;;20.48;100.00
72423;BME280;60413;55.658;37.498;2022-09-17T05:39:32;97417.38;;;20.47;100.00
72423;BME280;60413;55.658;37.498;2022-09-17T05:42:05;97409.78;;;20.81;100.00
72423;BME280;60413;55.658;37.498;2022-09-17T05:44:46;97426.44;;;20.90;100.00
72423;BME280;60413;55.658;37.498;2022-09-17T05:47:23;97427.94;;;21.59;100.00
72423;BME280;60413;55.658;37.498;2022-09-17T05:50:04;97462.78;;;21.98;100.00
72423;BME280;60413;55.658;37.498;2022-09-17T05:52:52;97438.91;;;22.32;100.00
72423;BME280;60413;55.658;37.498;2022-09-17T05:55:32;97445.06;;;22.13;100.00
72423;BME280;60413;55.658;37.498;2022-09-17T05:58:15;97444.28;;;22.55;100.00
72423;BME280;60413;55.658;37.498;2022-09-17T06:00:52;97394.34;;;21.84;100.00
72423;BME280;60413;55.658;37.498;2022-09-17T06:03:24;97417.94;;;22.18;100.00
72423;BME280;60413;55.658;37.498;2022-09-17T06:06:21;97431.34;;;22.37;100.00
72423;BME280;60413;55.658;37.498;2022-09-17T06:09:12;97467.66;;;22.31;100.00
72423;BME280;60413;55.658;37.498;2022-09-17T06:11:54;97397.97;;;22.62;100.00
72423;BME280;60413;55.658;37.498;2022-09-17T06:14:43;97394.59;;;22.42;100.00
72423;BME280;60413;55.658;37.498;2022-09-17T06:17:35;97423.34;;;22.41;100.00
72423;BME280;60413;55.658;37.498;2022-09-17T06:20:13;97467.81;;;23.11;100.00
72423;BME280;60413;55.658;37.498;2022-09-17T06:23:06;97414.94;;;23.16;100.00
72423;BME280;60413;55.658;37.498;2022-09-17T06:26:07;97471.38;;;22.69;100.00
72423;BME280;60413;55.658;37.498;2022-09-17T06:28:43;97398.16;;;21.83;100.00
72423;BME280;60413;55.658;37.498;2022-09-17T06:31:16;97401.47;;;22.19;100.00
72423;BME280;60413;55.658;37.498;2022-09-17T06:33:57;97403.81;;;22.90;100.00
72423;BME280;60413;55.658;37.498;2022-09-17T06:36:34;97469.69;;;23.34;100.00
72423;BME280;60413;55.658;37.498;2022-09-17T06:39:05;97476.16;;;23.60;100.00
72423;BME280;60413;55.658;37.498;2022-09-17T06:41:54;97439.06;;;24.03;100.00
72423;BME280;60413;55.658;37.498;2022-09-17T06:44:29;97446.03;;;24.49;100.00
72423;BME280;60413;55.658;37.498;2022-09-17T06:47:14;97440.19;;;23.38;100.00
72423;BME280;60413;55.658;37.498;2022-09-17T06:49:47;97424.34;;;21.90;100.00
72423;BME280;60413;55.658;37.498;2022-09-17T06:55:23;97391.72;;;20.46;100.00
72423;BME280;60413;55.658;37.498;2022-09-17T07:01:26;97414.19;;;19.29;100.00
72423;BME280;60413;55.658;37.498;2022-09-17T07:03:52;97455.81;;;18.93;100.00
72423;BME280;60413;55.658;37.498;2022-09-17T07:06:24;97401.59;;;18.30;100.00
72423;BME280;60413;55.658;37.498;2022-09-17T07:08:53;97430.88;;;18.76;100.00
72423;BME280;60413;55.658;37.498;2022-09-17T07:11:29;97476.59;;;18.75;100.00
72423;BME280;60413;55.658;37.498;2022-09-17T07:14:33;97418.47;;;19.46;100.00
72423;BME280;60413;55.658;37.498;2022-09-17T07:17:13;97464.78;;;21.46;100.00
72423;BME280;60413;55.658;37.498;2022-09-17T07:27:35;97414.66;;;18.94;100.00
72423;BME280;60413;55.658;37.498;2022-09-17T07:30:04;97418.94;;;18.37;100.00
72423;BME280;60413;55.658;37.498;2022-09-17T07:32:33;97438.03;;;18.26;100.00
72423;BME280;60413;55.658;37.498;2022-09-17T07:35:21;97481.56;;;18.64;100.00
72423;BME280;60413;55.658;37.498;2022-09-17T07:37:50;97420.03;;;18.36;100.00
72423;BME280;60413;55.658;37.498;2022-09-17T07:40:34;97445.25;;;18.26;100.00
72423;BME280;60413;55.658;37.498;2022-09-17T07:43:04;97479.59;;;18.73;100.00
72423;BME280;60413;55.658;37.498;2022-09-17T07:45:41;97440.66;;;18.14;100.00
72423;BME280;60413;55.658;37.498;2022-09-17T07:48:20;97522.28;;;18.73;100.00
72423;BME280;60413;55.658;37.498;2022-09-17T07:51:02;97465.81;;;18.25;100.00
72423;BME280;60413;55.658;37.498;2022-09-17T07:53:32;97442.84;;;18.00;100.00
72423;BME280;60413;55.658;37.498;2022-09-17T07:56:02;97485.97;;;18.47;100.00
72423;BME280;60413;55.658;37.498;2022-09-17T07:58:33;97437.09;;;18.10;100.00
72423;BME280;60413;55.658;37.498;2022-09-17T08:04:25;97437.91;;;17.89;100.00
72423;BME280;60413;55.658;37.498;2022-09-17T08:07:34;97480.91;;;17.79;100.00
72423;BME280;60413;55.658;37.498;2022-09-17T08:10:11;97505.38;;;17.81;100.00
72423;BME280;60413;55.658;37.498;2022-09-17T08:13:00;97455.34;;;17.87;100.00
72423;BME280;60413;55.658;37.498;2022-09-17T08:15:32;97477.41;;;18.42;100.00
72423;BME280;60413;55.658;37.498;2022-09-17T08:18:02;97496.53;;;18.90;100.00
72423;BME280;60413;55.658;37.498;2022-09-17T08:20:32;97467.03;;;19.35;100.00
72423;BME280;60413;55.658;37.498;2022-09-17T08:23:22;97436.41;;;19.33;100.00
72423;BME280;60413;55.658;37.498;2022-09-17T08:25:55;97496.22;;;20.22;100.00
72423;BME280;60413;55.658;37.498;2022-09-17T08:28:55;97450.41;;;20.23;100.00
72423;BME280;60413;55.658;37.498;2022-09-17T08:31:26;97434.44;;;20.27;100.00
72423;BME280;60413;55.658;37.498;2022-09-17T08:34:00;97484.19;;;20.60;100.00
72423;BME280;60413;55.658;37.498;2022-09-17T08:36:33;97442.56;;;20.30;100.00
72423;BME280;60413;55.658;37.498;2022-09-17T08:39:09;97515.25;;;20.77;100.00
72423;BME280;60413;55.658;37.498;2022-09-17T08:41:53;97466.16;;;20.12;100.00
72423;BME280;60413;55.658;37.498;2022-09-17T08:44:42;97491.78;;;20.42;100.00
72423;BME280;60413;55.658;37.498;2022-09-17T08:53:22;97526.06;;;20.24;100.00
72423;BME280;60413;55.658;37.498;2022-09-17T09:08:41;97453.28;;;18.96;100.00
72423;BME280;60413;55.658;37.498;2022-09-17T09:11:39;97529.81;;;19.17;100.00
72423;BME280;60413;55.658;37.498;2022-09-17T09:17:22;97446.09;;;18.76;100.00
72423;BME280;60413;55.658;37.498;2022-09-17T09:19:54;97506.88;;;19.28;100.00
72423;BME280;60413;55.658;37.498;2022-09-17T09:23:00;97514.19;;;19.56;100.00
72423;BME280;60413;55.658;37.498;2022-09-17T09:25:34;97450.13;;;19.19;100.00
72423;BME280;60413;55.658;37.498;2022-09-17T09:28:34;97490.25;;;19.59;100.00
72423;BME280;60413;55.658;37.498;2022-09-17T09:31:14;97454.13;;;19.25;100.00
72423;BME280;60413;55.658;37.498;2022-09-17T09:46:43;97515.47;;;18.76;100.00
72423;BME280;60413;55.658;37.498;2022-09-17T09:58:49;97500.56;;;17.74;100.00
72423;BME280;60413;55.658;37.498;2022-09-17T10:01:21;97483.97;;;17.69;94.14
72423;BME280;60413;55.658;37.498;2022-09-17T10:07:09;97473.25;;;17.77;100.00
72423;BME280;60413;55.658;37.498;2022-09-17T10:09:59;97552.94;;;18.12;88.29
72423;BME280;60413;55.658;37.498;2022-09-17T10:13:17;97480.84;;;16.77;100.00
72423;BME280;60413;55.658;37.498;2022-09-17T10:24:55;97517.72;;;16.96;100.00
72423;BME280;60413;55.658;37.498;2022-09-17T10:27:26;97486.91;;;16.30;98.33
72423;BME280;60413;55.658;37.498;2022-09-17T10:32:48;97506.50;;;16.73;100.00
72423;BME280;60413;55.658;37.498;2022-09-17T10:39:56;97493.34;;;15.95;100.00
72423;BME280;60413;55.658;37.498;2022-09-17T10:42:35;97548.81;;;16.14;100.00
72423;BME280;60413;55.658;37.498;2022-09-17T10:45:10;97514.53;;;15.68;100.00
72423;BME280;60413;55.658;37.498;2022-09-17T10:48:14;97566.25;;;15.62;100.00
72423;BME280;60413;55.658;37.498;2022-09-17T10:50:55;97585.47;;;15.19;100.00
72423;BME280;60413;55.658;37.498;2022-09-17T10:53:26;97568.06;;;15.35;100.00
72423;BME280;60413;55.658;37.498;2022-09-17T11:08:51;97510.38;;;14.56;100.00
72423;BME280;60413;55.658;37.498;2022-09-17T11:26:51;97524.28;;;16.08;100.00
72423;BME280;60413;55.658;37.498;2022-09-17T11:32:42;97507.72;;;15.93;100.00
72423;BME280;60413;55.658;37.498;2022-09-17T11:35:22;97594.94;;;16.35;100.00
72423;BME280;60413;55.658;37.498;2022-09-17T11:38:17;97531.91;;;15.74;100.00
72423;BME280;60413;55.658;37.498;2022-09-17T11:55:51;97595.88;;;16.22;100.00
72423;BME280;60413;55.658;37.498;2022-09-17T11:58:30;97585.88;;;16.10;100.00
72423;BME280;60413;55.658;37.498;2022-09-17T12:01:32;97580.22;;;15.85;100.00
72423;BME280;60413;55.658;37.498;2022-09-17T12:15:44;97512.31;;;15.35;100.00
72423;BME280;60413;55.658;37.498;2022-09-17T12:22:13;97575.53;;;15.82;100.00
72423;BME280;60413;55.658;37.498;2022-09-17T12:31:35;97600.09;;;16.66;100.00
72423;BME280;60413;55.658;37.498;2022-09-17T12:37:47;97571.81;;;16.09;100.00
72423;BME280;60413;55.658;37.498;2022-09-17T13:14:49;97581.78;;;15.86;100.00
72423;BME280;60413;55.658;37.498;2022-09-17T13:17:59;97601.19;;;15.96;100.00
72423;BME280;60413;55.658;37.498;2022-09-17T13:20:47;97576.19;;;16.14;100.00
72423;BME280;60413;55.658;37.498;2022-09-17T13:23:47;97577.88;;;16.54;100.00
72423;BME280;60413;55.658;37.498;2022-09-17T13:26:36;97618.53;;;16.80;100.00
72423;BME280;60413;55.658;37.498;2022-09-17T13:40:29;97568.72;;;15.10;100.00
72423;BME280;60413;55.658;37.498;2022-09-17T13:48:22;97568.53;;;14.97;100.00
72423;BME280;60413;55.658;37.498;2022-09-17T13:50:51;97577.81;;;15.17;100.00
72423;BME280;60413;55.658;37.498;2022-09-17T13:53:28;97561.69;;;15.45;100.00
72423;BME280;60413;55.658;37.498;2022-09-17T13:56:32;97620.25;;;15.98;100.00
72423;BME280;60413;55.658;37.498;2022-09-17T13:59:11;97571.06;;;15.60;100.00
72423;BME280;60413;55.658;37.498;2022-09-17T14:09:59;97582.34;;;15.17;100.00
72423;BME280;60413;55.658;37.498;2022-09-17T14:15:53;97564.13;;;14.93;100.00
72423;BME280;60413;55.658;37.498;2022-09-17T14:23:42;97602.03;;;14.93;100.00
72423;BME280;60413;55.658;37.498;2022-09-17T14:26:24;97557.28;;;14.69;100.00
72423;BME280;60413;55.658;37.498;2022-09-17T14:31:33;97598.09;;;14.82;100.00
72423;BME280;60413;55.658;37.498;2022-09-17T14:34:22;97562.47;;;14.52;100.00
72423;BME280;60413;55.658;37.498;2022-09-17T14:36:53;97633.38;;;14.91;100.00
72423;BME280;60413;55.658;37.498;2022-09-17T14:39:26;97573.44;;;14.59;100.00
72423;BME280;60413;55.658;37.498;2022-09-17T14:42:12;97569.72;;;14.46;100.00
72423;BME280;60413;55.658;37.498;2022-09-17T14:44:48;97587.56;;;14.54;100.00
72423;BME280;60413;55.658;37.498;2022-09-17T14:47:20;97583.59;;;14.43;100.00
72423;BME280;60413;55.658;37.498;2022-09-17T14:49:49;97648.78;;;14.80;100.00
72423;BME280;60413;55.658;37.498;2022-09-17T14:52:31;97591.53;;;14.43;100.00
72423;BME280;60413;55.658;37.498;2022-09-17T14:55:29;97671.19;;;14.74;100.00
72423;BME280;60413;55.658;37.498;2022-09-17T14:58:35;97674.72;;;14.70;100.00
72423;BME280;60413;55.658;37.498;2022-09-17T15:01:03;97619.97;;;13.50;100.00
72423;BME280;60413;55.658;37.498;2022-09-17T15:03:32;97629.69;;;13.22;100.00
72423;BME280;60413;55.658;37.498;2022-09-17T15:06:00;97609.69;;;13.02;100.00
72423;BME280;60413;55.658;37.498;2022-09-17T15:08:26;97599.84;;;12.89;100.00
72423;BME280;60413;55.658;37.498;2022-09-17T15:11:00;97604.16;;;12.85;100.00
72423;BME280;60413;55.658;37.498;2022-09-17T15:13:40;97630.81;;;12.88;100.00
72423;BME280;60413;55.658;37.498;2022-09-17T15:16:24;97617.78;;;12.59;100.00
72423;BME280;60413;55.658;37.498;2022-09-17T15:19:11;97647.63;;;12.40;100.00
72423;BME280;60413;55.658;37.498;2022-09-17T15:21:43;97700.06;;;12.33;100.00
72423;BME280;60413;55.658;37.498;2022-09-17T15:24:19;97673.84;;;11.94;100.00
72423;BME280;60413;55.658;37.498;2022-09-17T15:26:52;97677.09;;;11.85;100.00
72423;BME280;60413;55.658;37.498;2022-09-17T15:29:23;97638.41;;;11.52;100.00
72423;BME280;60413;55.658;37.498;2022-09-17T15:32:02;97640.59;;;11.44;100.00
72423;BME280;60413;55.658;37.498;2022-09-17T15:34:32;97696.13;;;11.82;100.00
72423;BME280;60413;55.658;37.498;2022-09-17T15:39:48;97658.50;;;11.72;100.00
72423;BME280;60413;55.658;37.498;2022-09-17T15:42:35;97644.34;;;11.62;100.00
72423;BME280;60413;55.658;37.498;2022-09-17T15:45:21;97621.16;;;11.35;100.00
72423;BME280;60413;55.658;37.498;2022-09-17T15:47:55;97640.34;;;11.41;100.00
72423;BME280;60413;55.658;37.498;2022-09-17T15:50:28;97641.88;;;11.47;100.00
72423;BME280;60413;55.658;37.498;2022-09-17T15:53:11;97644.97;;;11.30;100.00
72423;BME280;60413;55.658;37.498;2022-09-17T15:58:21;97631.84;;;10.90;100.00
72423;BME280;60413;55.658;37.498;2022-09-17T16:08:51;97684.25;;;10.97;100.00
72423;BME280;60413;55.658;37.498;2022-09-17T16:11:24;97659.34;;;10.84;100.00
72423;BME280;60413;55.658;37.498;2022-09-17T16:13:54;97662.97;;;10.88;100.00
72423;BME280;60413;55.658;37.498;2022-09-17T16:18:54;97664.78;;;10.93;100.00
72423;BME280;60413;55.658;37.498;2022-09-17T16:21:20;97697.53;;;11.21;100.00
72423;BME280;60413;55.658;37.498;2022-09-17T16:23:48;97684.88;;;11.18;100.00
72423;BME280;60413;55.658;37.498;2022-09-17T16:26:31;97675.88;;;11.24;100.00
72423;BME280;60413;55.658;37.498;2022-09-17T16:29:04;97670.88;;;11.23;100.00
72423;BME280;60413;55.658;37.498;2022-09-17T16:31:32;97668.69;;;11.30;100.00
72423;BME280;60413;55.658;37.498;2022-09-17T16:34:03;97724.03;;;11.64;100.00
72423;BME280;60413;55.658;37.498;2022-09-17T16:36:32;97705.94;;;11.53;100.00
72423;BME280;60413;55.658;37.498;2022-09-17T16:39:01;97695.16;;;11.49;100.00
72423;BME280;60413;55.658;37.498;2022-09-17T16:41:31;97709.59;;;11.57;100.00
72423;BME280;60413;55.658;37.498;2022-09-17T16:43:58;97675.56;;;11.31;100.00
72423;BME280;60413;55.658;37.498;2022-09-17T16:46:27;97680.56;;;11.27;100.00
72423;BME280;60413;55.658;37.498;2022-09-17T16:48:59;97725.81;;;11.45;100.00
72423;BME280;60413;55.658;37.498;2022-09-17T16:51:28;97689.63;;;11.21;100.00
72423;BME280;60413;55.658;37.498;2022-09-17T16:54:04;97696.47;;;11.17;100.00
72423;BME280;60413;55.658;37.498;2022-09-17T16:56:33;97701.44;;;11.24;100.00
72423;BME280;60413;55.658;37.498;2022-09-17T16:59:00;97688.94;;;11.05;100.00
72423;BME280;60413;55.658;37.498;2022-09-17T17:01:26;97708.16;;;11.11;100.00
72423;BME280;60413;55.658;37.498;2022-09-17T17:03:52;97722.00;;;11.27;100.00
72423;BME280;60413;55.658;37.498;2022-09-17T17:06:20;97697.56;;;11.16;100.00
72423;BME280;60413;55.658;37.498;2022-09-17T17:08:47;97716.16;;;11.30;100.00
72423;BME280;60413;55.658;37.498;2022-09-17T17:11:17;97734.81;;;11.39;100.00
72423;BME280;60413;55.658;37.498;2022-09-17T17:13:46;97673.56;;;11.12;100.00
72423;BME280;60413;55.658;37.498;2022-09-17T17:16:14;97709.31;;;11.29;100.00
72423;BME280;60413;55.658;37.498;2022-09-17T17:18:43;97711.75;;;11.20;100.00
72423;BME280;60413;55.658;37.498;2022-09-17T17:21:15;97702.75;;;11.26;100.00
72423;BME280;60413;55.658;37.498;2022-09-17T17:23:47;97683.34;;;11.12;100.00
72423;BME280;60413;55.658;37.498;2022-09-17T17:26:24;97692.63;;;11.09;100.00
72423;BME280;60413;55.658;37.498;2022-09-17T17:28:53;97676.06;;;10.99;100.00
72423;BME280;60413;55.658;37.498;2022-09-17T17:31:22;97685.84;;;10.98;100.00
72423;BME280;60413;55.658;37.498;2022-09-17T17:33:53;97716.72;;;11.27;100.00
72423;BME280;60413;55.658;37.498;2022-09-17T17:36:22;97743.75;;;11.43;100.00
72423;BME280;60413;55.658;37.498;2022-09-17T17:38:56;97720.66;;;11.29;100.00
72423;BME280;60413;55.658;37.498;2022-09-17T17:41:29;97676.03;;;11.04;100.00
72423;BME280;60413;55.658;37.498;2022-09-17T17:43:56;97742.78;;;11.34;100.00
72423;BME280;60413;55.658;37.498;2022-09-17T17:46:25;97712.81;;;11.19;100.00
72423;BME280;60413;55.658;37.498;2022-09-17T17:48:52;97714.44;;;11.15;100.00
72423;BME280;60413;55.658;37.498;2022-09-17T17:51:24;97761.41;;;11.42;100.00
72423;BME280;60413;55.658;37.498;2022-09-17T17:53:57;97720.22;;;11.17;100.00
72423;BME280;60413;55.658;37.498;2022-09-17T17:56:24;97727.13;;;11.13;100.00
72423;BME280;60413;55.658;37.498;2022-09-17T17:58:55;97739.44;;;11.23;100.00
72423;BME280;60413;55.658;37.498;2022-09-17T18:01:33;97772.28;;;11.36;100.00
72423;BME280;60413;55.658;37.498;2022-09-17T18:04:03;97725.56;;;11.07;100.00
72423;BME280;60413;55.658;37.498;2022-09-17T18:06:33;97732.75;;;11.01;100.00
72423;BME280;60413;55.658;37.498;2022-09-17T18:09:01;97735.69;;;10.94;100.00
72423;BME280;60413;55.658;37.498;2022-09-17T18:11:36;97732.38;;;10.73;100.00
72423;BME280;60413;55.658;37.498;2022-09-17T18:14:02;97704.59;;;10.52;100.00
72423;BME280;60413;55.658;37.498;2022-09-17T18:16:33;97743.97;;;10.72;100.00
72423;BME280;60413;55.658;37.498;2022-09-17T18:19:00;97716.97;;;10.51;100.00
72423;BME280;60413;55.658;37.498;2022-09-17T18:21:26;97705.19;;;10.38;100.00
72423;BME280;60413;55.658;37.498;2022-09-17T18:23:55;97737.00;;;10.47;100.00
72423;BME280;60413;55.658;37.498;2022-09-17T18:26:25;97711.28;;;10.24;100.00
72423;BME280;60413;55.658;37.498;2022-09-17T18:28:52;97714.97;;;10.23;100.00
72423;BME280;60413;55.658;37.498;2022-09-17T18:31:32;97721.34;;;10.11;100.00
72423;BME280;60413;55.658;37.498;2022-09-17T18:34:05;97720.00;;;10.14;100.00
72423;BME280;60413;55.658;37.498;2022-09-17T18:36:37;97717.94;;;10.06;100.00
72423;BME280;60413;55.658;37.498;2022-09-17T18:39:11;97708.47;;;10.05;100.00
72423;BME280;60413;55.658;37.498;2022-09-17T18:41:42;97702.97;;;10.01;100.00
72423;BME280;60413;55.658;37.498;2022-09-17T18:44:11;97722.66;;;10.04;100.00
72423;BME280;60413;55.658;37.498;2022-09-17T18:46:37;97760.25;;;10.25;100.00
72423;BME280;60413;55.658;37.498;2022-09-17T18:49:07;97743.19;;;10.12;100.00
72423;BME280;60413;55.658;37.498;2022-09-17T18:51:36;97712.97;;;9.94;100.00
72423;BME280;60413;55.658;37.498;2022-09-17T18:54:03;97718.22;;;9.94;100.00
72423;BME280;60413;55.658;37.498;2022-09-17T18:56:31;97711.69;;;9.86;100.00
72423;BME280;60413;55.658;37.498;2022-09-17T18:59:01;97717.44;;;9.93;100.00
72423;BME280;60413;55.658;37.498;2022-09-17T19:01:33;97771.31;;;10.22;100.00
72423;BME280;60413;55.658;37.498;2022-09-17T19:04:01;97710.91;;;9.86;100.00
72423;BME280;60413;55.658;37.498;2022-09-17T19:06:39;97714.34;;;9.81;100.00
72423;BME280;60413;55.658;37.498;2022-09-17T19:09:11;97752.44;;;10.04;100.00
72423;BME280;60413;55.658;37.498;2022-09-17T19:11:37;97709.84;;;9.81;100.00
72423;BME280;60413;55.658;37.498;2022-09-17T19:14:08;97721.16;;;9.82;100.00
72423;BME280;60413;55.658;37.498;2022-09-17T19:16:44;97740.63;;;9.86;100.00
72423;BME280;60413;55.658;37.498;2022-09-17T19:19:14;97768.75;;;10.01;100.00
72423;BME280;60413;55.658;37.498;2022-09-17T19:21:43;97736.69;;;9.78;100.00
72423;BME280;60413;55.658;37.498;2022-09-17T19:24:15;97762.69;;;9.95;100.00
72423;BME280;60413;55.658;37.498;2022-09-17T19:26:41;97772.94;;;10.02;100.00
72423;BME280;60413;55.658;37.498;2022-09-17T19:29:11;97725.13;;;9.74;100.00
72423;BME280;60413;55.658;37.498;2022-09-17T19:31:46;97734.59;;;9.75;100.00
72423;BME280;60413;55.658;37.498;2022-09-17T19:34:16;97728.81;;;9.73;100.00
72423;BME280;60413;55.658;37.498;2022-09-17T19:36:47;97731.72;;;9.72;100.00
72423;BME280;60413;55.658;37.498;2022-09-17T19:39:15;97759.31;;;9.85;100.00
72423;BME280;60413;55.658;37.498;2022-09-17T19:41:42;97786.09;;;10.07;100.00
72423;BME280;60413;55.658;37.498;2022-09-17T19:44:23;97744.59;;;9.68;100.00
72423;BME280;60413;55.658;37.498;2022-09-17T19:46:54;97808.50;;;10.05;100.00
72423;BME280;60413;55.658;37.498;2022-09-17T19:49:28;97751.19;;;9.66;100.00
72423;BME280;60413;55.658;37.498;2022-09-17T19:51:57;97754.34;;;9.62;100.00
72423;BME280;60413;55.658;37.498;2022-09-17T19:54:23;97746.47;;;9.57;100.00
72423;BME280;60413;55.658;37.498;2022-09-17T19:56:52;97766.41;;;9.74;100.00
72423;BME280;60413;55.658;37.498;2022-09-17T19:59:52;97785.13;;;9.82;100.00
72423;BME280;60413;55.658;37.498;2022-09-17T20:02:21;97748.31;;;9.57;100.00
72423;BME280;60413;55.658;37.498;2022-09-17T20:04:52;97739.88;;;9.55;100.00
72423;BME280;60413;55.658;37.498;2022-09-17T20:07:19;97780.91;;;9.76;100.00
72423;BME280;60413;55.658;37.498;2022-09-17T20:09:46;97774.34;;;9.63;100.00
72423;BME280;60413;55.658;37.498;2022-09-17T20:12:19;97797.72;;;9.75;100.00
72423;BME280;60413;55.658;37.498;2022-09-17T20:14:46;97776.97;;;9.53;100.00
72423;BME280;60413;55.658;37.498;2022-09-17T20:17:12;97765.69;;;9.48;100.00
72423;BME280;60413;55.658;37.498;2022-09-17T20:19:59;97822.22;;;9.86;100.00
72423;BME280;60413;55.658;37.498;2022-09-17T20:22:26;97781.97;;;9.50;100.00
72423;BME280;60413;55.658;37.498;2022-09-17T20:24:54;97785.13;;;9.57;100.00
72423;BME280;60413;55.658;37.498;2022-09-17T20:27:59;97775.41;;;9.42;100.00
72423;BME280;60413;55.658;37.498;2022-09-17T20:30:33;97805.63;;;9.60;100.00
72423;BME280;60413;55.658;37.498;2022-09-17T20:33:00;97796.44;;;9.42;100.00
72423;BME280;60413;55.658;37.498;2022-09-17T20:35:33;97777.25;;;9.31;100.00
72423;BME280;60413;55.658;37.498;2022-09-17T20:38:02;97818.00;;;9.54;100.00
72423;BME280;60413;55.658;37.498;2022-09-17T20:40:36;97776.47;;;9.25;100.00
72423;BME280;60413;55.658;37.498;2022-09-17T20:43:02;97801.16;;;9.40;100.00
72423;BME280;60413;55.658;37.498;2022-09-17T20:45:34;97811.69;;;9.45;100.00
72423;BME280;60413;55.658;37.498;2022-09-17T20:48:00;97816.16;;;9.50;100.00
72423;BME280;60413;55.658;37.498;2022-09-17T20:50:29;97815.66;;;9.37;100.00
72423;BME280;60413;55.658;37.498;2022-09-17T20:52:59;97829.31;;;9.44;100.00
72423;BME280;60413;55.658;37.498;2022-09-17T20:55:25;97783.53;;;9.15;100.00
72423;BME280;60413;55.658;37.498;2022-09-17T20:57:51;97819.81;;;9.23;100.00
72423;BME280;60413;55.658;37.498;2022-09-17T21:00:21;97811.16;;;9.17;100.00
72423;BME280;60413;55.658;37.498;2022-09-17T21:02:54;97800.91;;;9.11;100.00
72423;BME280;60413;55.658;37.498;2022-09-17T21:05:21;97837.72;;;9.31;100.00
72423;BME280;60413;55.658;37.498;2022-09-17T21:07:49;97798.53;;;9.09;100.00
72423;BME280;60413;55.658;37.498;2022-09-17T21:10:15;97800.34;;;9.14;100.00
72423;BME280;60413;55.658;37.498;2022-09-17T21:12:41;97789.81;;;9.03;100.00
72423;BME280;60413;55.658;37.498;2022-09-17T21:15:07;97829.81;;;9.26;100.00
72423;BME280;60413;55.658;37.498;2022-09-17T21:17:34;97871.66;;;9.43;100.00
72423;BME280;60413;55.658;37.498;2022-09-17T21:20:01;97848.75;;;9.28;100.00